sensor_id;sensor_type;location;lat;lon;timestamp;P1;durP1;ratioP1;P2;durP2;ratioP2
1414;SDS011;702;49.466;11.086;2024-02-26T00:01:04;7.80;;;4.57;;
1414;SDS011;702;49.466;11.086;2024-02-26T00:03:31;4.80;;;4.00;;
1414;SDS011;702;49.466;11.086;2024-02-26T00:06:01;8.97;;;5.00;;
1414;SDS011;702;49.466;11.086;2024-02-26T00:08:28;8.20;;;4.77;;
1414;SDS011;702;49.466;11.086;2024-02-26T00:10:57;5.70;;;4.90;;
1414;SDS011;702;49.466;11.086;2024-02-26T00:13:24;6.87;;;5.17;;
1414;SDS011;702;49.466;11.086;2024-02-26T00:15:52;8.40;;;4.90;;
1414;SDS011;702;49.466;11.086;2024-02-26T00:18:19;6.90;;;5.67;;
1414;SDS011;702;49.466;11.086;2024-02-26T00:20:46;6.20;;;5.60;;
1414;SDS011;702;49.466;11.086;2024-02-26T00:23:14;7.20;;;5.00;;
1414;SDS011;702;49.466;11.086;2024-02-26T00:25:42;7.63;;;5.80;;
1414;SDS011;702;49.466;11.086;2024-02-26T00:28:11;7.33;;;5.47;;
1414;SDS011;702;49.466;11.086;2024-02-26T00:30:40;7.10;;;5.67;;
1414;SDS011;702;49.466;11.086;2024-02-26T00:33:08;7.77;;;6.10;;
1414;SDS011;702;49.466;11.086;2024-02-26T00:35:35;8.90;;;6.30;;
1414;SDS011;702;49.466;11.086;2024-02-26T00:38:03;8.80;;;5.87;;
1414;SDS011;702;49.466;11.086;2024-02-26T00:40:30;9.47;;;6.37;;
1414;SDS011;702;49.466;11.086;2024-02-26T00:42:58;10.03;;;7.07;;
1414;SDS011;702;49.466;11.086;2024-02-26T00:45:27;9.37;;;7.13;;
1414;SDS011;702;49.466;11.086;2024-02-26T00:47:54;11.47;;;7.70;;
1414;SDS011;702;49.466;11.086;2024-02-26T00:50:21;8.03;;;6.70;;
1414;SDS011;702;49.466;11.086;2024-02-26T00:52:49;11.70;;;7.50;;
1414;SDS011;702;49.466;11.086;2024-02-26T00:55:16;9.60;;;7.60;;
1414;SDS011;702;49.466;11.086;2024-02-26T00:57:43;10.60;;;8.20;;
1414;SDS011;702;49.466;11.086;2024-02-26T01:00:11;9.17;;;7.47;;
1414;SDS011;702;49.466;11.086;2024-02-26T01:02:41;11.70;;;8.00;;
1414;SDS011;702;49.466;11.086;2024-02-26T01:05:08;10.13;;;6.70;;
1414;SDS011;702;49.466;11.086;2024-02-26T01:07:35;12.17;;;7.40;;
1414;SDS011;702;49.466;11.086;2024-02-26T01:10:03;11.07;;;7.30;;
1414;SDS011;702;49.466;11.086;2024-02-26T01:12:31;11.37;;;8.10;;
1414;SDS011;702;49.466;11.086;2024-02-26T01:14:59;12.70;;;7.53;;
1414;SDS011;702;49.466;11.086;2024-02-26T01:17:26;9.37;;;7.63;;
1414;SDS011;702;49.466;11.086;2024-02-26T01:19:55;11.37;;;7.43;;
1414;SDS011;702;49.466;11.086;2024-02-26T01:22:22;11.27;;;6.80;;
1414;SDS011;702;49.466;11.086;2024-02-26T01:24:50;12.67;;;7.90;;
1414;SDS011;702;49.466;11.086;2024-02-26T01:27:17;9.77;;;8.00;;
1414;SDS011;702;49.466;11.086;2024-02-26T01:29:45;12.03;;;8.13;;
1414;SDS011;702;49.466;11.086;2024-02-26T01:32:12;8.23;;;7.30;;
1414;SDS011;702;49.466;11.086;2024-02-26T01:34:39;13.40;;;8.00;;
1414;SDS011;702;49.466;11.086;2024-02-26T01:37:08;13.57;;;8.80;;
1414;SDS011;702;49.466;11.086;2024-02-26T01:39:35;10.90;;;7.67;;
1414;SDS011;702;49.466;11.086;2024-02-26T01:42:03;13.07;;;6.90;;
1414;SDS011;702;49.466;11.086;2024-02-26T01:44:30;13.27;;;8.63;;
1414;SDS011;702;49.466;11.086;2024-02-26T01:46:58;11.20;;;7.63;;
1414;SDS011;702;49.466;11.086;2024-02-26T01:49:26;10.90;;;8.20;;
1414;SDS011;702;49.466;11.086;2024-02-26T01:51:55;9.87;;;8.80;;
1414;SDS011;702;49.466;11.086;2024-02-26T01:54:24;11.00;;;8.30;;
1414;SDS011;702;49.466;11.086;2024-02-26T01:56:52;11.00;;;8.40;;
1414;SDS011;702;49.466;11.086;2024-02-26T01:59:19;12.40;;;8.40;;
1414;SDS011;702;49.466;11.086;2024-02-26T02:01:48;10.53;;;7.30;;
1414;SDS011;702;49.466;11.086;2024-02-26T02:04:21;12.90;;;8.00;;
1414;SDS011;702;49.466;11.086;2024-02-26T02:06:50;11.50;;;8.30;;
1414;SDS011;702;49.466;11.086;2024-02-26T02:09:19;12.30;;;7.30;;
1414;SDS011;702;49.466;11.086;2024-02-26T02:11:49;12.00;;;8.47;;
1414;SDS011;702;49.466;11.086;2024-02-26T02:14:17;10.87;;;8.23;;
1414;SDS011;702;49.466;11.086;2024-02-26T02:16:44;9.33;;;7.03;;
1414;SDS011;702;49.466;11.086;2024-02-26T02:19:13;11.90;;;7.80;;
1414;SDS011;702;49.466;11.086;2024-02-26T02:21:41;11.90;;;7.67;;
1414;SDS011;702;49.466;11.086;2024-02-26T02:24:09;9.23;;;7.17;;
1414;SDS011;702;49.466;11.086;2024-02-26T02:26:36;11.40;;;7.10;;
1414;SDS011;702;49.466;11.086;2024-02-26T02:29:03;11.27;;;6.90;;
1414;SDS011;702;49.466;11.086;2024-02-26T02:31:32;13.20;;;6.77;;
1414;SDS011;702;49.466;11.086;2024-02-26T02:33:59;12.43;;;7.57;;
1414;SDS011;702;49.466;11.086;2024-02-26T02:36:27;8.57;;;6.43;;
1414;SDS011;702;49.466;11.086;2024-02-26T02:38:56;9.63;;;7.43;;
1414;SDS011;702;49.466;11.086;2024-02-26T02:41:26;9.93;;;6.80;;
1414;SDS011;702;49.466;11.086;2024-02-26T02:43:55;9.40;;;7.20;;
1414;SDS011;702;49.466;11.086;2024-02-26T02:46:23;10.83;;;7.00;;
1414;SDS011;702;49.466;11.086;2024-02-26T02:48:50;10.00;;;6.50;;
1414;SDS011;702;49.466;11.086;2024-02-26T02:51:17;11.03;;;7.60;;
1414;SDS011;702;49.466;11.086;2024-02-26T02:53:44;9.17;;;7.17;;
1414;SDS011;702;49.466;11.086;2024-02-26T02:56:13;8.53;;;6.97;;
1414;SDS011;702;49.466;11.086;2024-02-26T02:58:40;9.57;;;7.00;;
1414;SDS011;702;49.466;11.086;2024-02-26T03:01:07;12.17;;;7.50;;
1414;SDS011;702;49.466;11.086;2024-02-26T03:03:34;9.60;;;6.73;;
1414;SDS011;702;49.466;11.086;2024-02-26T03:06:02;10.93;;;7.60;;
1414;SDS011;702;49.466;11.086;2024-02-26T03:08:30;15.07;;;8.27;;
1414;SDS011;702;49.466;11.086;2024-02-26T03:10:58;10.93;;;7.80;;
1414;SDS011;702;49.466;11.086;2024-02-26T03:13:27;9.77;;;6.93;;
1414;SDS011;702;49.466;11.086;2024-02-26T03:15:54;10.40;;;7.77;;
1414;SDS011;702;49.466;11.086;2024-02-26T03:18:22;10.60;;;8.23;;
1414;SDS011;702;49.466;11.086;2024-02-26T03:20:50;12.60;;;7.47;;
1414;SDS011;702;49.466;11.086;2024-02-26T03:23:18;9.40;;;7.23;;
1414;SDS011;702;49.466;11.086;2024-02-26T03:25:46;10.10;;;7.63;;
1414;SDS011;702;49.466;11.086;2024-02-26T03:28:16;11.37;;;7.83;;
1414;SDS011;702;49.466;11.086;2024-02-26T03:30:44;9.93;;;7.67;;
1414;SDS011;702;49.466;11.086;2024-02-26T03:33:14;10.20;;;7.33;;
1414;SDS011;702;49.466;11.086;2024-02-26T03:35:41;10.90;;;7.70;;
1414;SDS011;702;49.466;11.086;2024-02-26T03:38:09;10.50;;;8.37;;
1414;SDS011;702;49.466;11.086;2024-02-26T03:40:36;10.53;;;7.33;;
1414;SDS011;702;49.466;11.086;2024-02-26T03:43:04;10.60;;;7.23;;
1414;SDS011;702;49.466;11.086;2024-02-26T03:45:32;10.03;;;7.20;;
1414;SDS011;702;49.466;11.086;2024-02-26T03:48:01;10.50;;;7.30;;
1414;SDS011;702;49.466;11.086;2024-02-26T03:50:29;10.13;;;7.47;;
1414;SDS011;702;49.466;11.086;2024-02-26T03:52:56;12.17;;;7.73;;
1414;SDS011;702;49.466;11.086;2024-02-26T03:55:24;8.83;;;7.17;;
1414;SDS011;702;49.466;11.086;2024-02-26T03:57:57;11.60;;;7.60;;
1414;SDS011;702;49.466;11.086;2024-02-26T04:00:24;9.87;;;6.90;;
1414;SDS011;702;49.466;11.086;2024-02-26T04:02:54;11.00;;;6.90;;
1414;SDS011;702;49.466;11.086;2024-02-26T04:05:22;10.40;;;6.67;;
1414;SDS011;702;49.466;11.086;2024-02-26T04:07:50;9.03;;;5.90;;
1414;SDS011;702;49.466;11.086;2024-02-26T04:10:17;8.63;;;6.40;;
1414;SDS011;702;49.466;11.086;2024-02-26T04:12:44;10.60;;;6.13;;
1414;SDS011;702;49.466;11.086;2024-02-26T04:15:12;10.60;;;6.97;;
1414;SDS011;702;49.466;11.086;2024-02-26T04:17:39;11.73;;;6.47;;
1414;SDS011;702;49.466;11.086;2024-02-26T04:20:07;11.00;;;6.47;;
1414;SDS011;702;49.466;11.086;2024-02-26T04:22:42;9.37;;;6.70;;
1414;SDS011;702;49.466;11.086;2024-02-26T04:25:09;11.40;;;6.97;;
1414;SDS011;702;49.466;11.086;2024-02-26T04:27:36;10.33;;;6.23;;
1414;SDS011;702;49.466;11.086;2024-02-26T04:30:04;9.20;;;6.50;;
1414;SDS011;702;49.466;11.086;2024-02-26T04:32:33;9.83;;;6.50;;
1414;SDS011;702;49.466;11.086;2024-02-26T04:35:00;10.03;;;6.10;;
1414;SDS011;702;49.466;11.086;2024-02-26T04:37:28;7.60;;;6.00;;
1414;SDS011;702;49.466;11.086;2024-02-26T04:39:58;8.23;;;5.37;;
1414;SDS011;702;49.466;11.086;2024-02-26T04:42:29;7.73;;;6.20;;
1414;SDS011;702;49.466;11.086;2024-02-26T04:44:56;7.57;;;5.50;;
1414;SDS011;702;49.466;11.086;2024-02-26T04:47:24;7.40;;;5.50;;
1414;SDS011;702;49.466;11.086;2024-02-26T04:49:51;7.00;;;5.60;;
1414;SDS011;702;49.466;11.086;2024-02-26T04:52:19;9.83;;;6.00;;
1414;SDS011;702;49.466;11.086;2024-02-26T04:54:46;9.17;;;6.20;;
1414;SDS011;702;49.466;11.086;2024-02-26T04:57:15;7.00;;;5.13;;
1414;SDS011;702;49.466;11.086;2024-02-26T04:59:44;7.50;;;5.20;;
1414;SDS011;702;49.466;11.086;2024-02-26T05:02:11;6.93;;;5.40;;
1414;SDS011;702;49.466;11.086;2024-02-26T05:04:38;7.30;;;4.93;;
1414;SDS011;702;49.466;11.086;2024-02-26T05:07:06;7.97;;;4.70;;
1414;SDS011;702;49.466;11.086;2024-02-26T05:09:34;11.27;;;6.63;;
1414;SDS011;702;49.466;11.086;2024-02-26T05:12:02;7.80;;;5.13;;
1414;SDS011;702;49.466;11.086;2024-02-26T05:14:32;5.30;;;4.40;;
1414;SDS011;702;49.466;11.086;2024-02-26T05:17:00;5.20;;;4.30;;
1414;SDS011;702;49.466;11.086;2024-02-26T05:19:27;7.17;;;4.30;;
1414;SDS011;702;49.466;11.086;2024-02-26T05:21:54;5.70;;;4.87;;
1414;SDS011;702;49.466;11.086;2024-02-26T05:24:22;5.27;;;4.50;;
1414;SDS011;702;49.466;11.086;2024-02-26T05:26:49;5.17;;;4.37;;
1414;SDS011;702;49.466;11.086;2024-02-26T05:29:16;8.00;;;4.73;;
1414;SDS011;702;49.466;11.086;2024-02-26T05:31:45;7.53;;;4.87;;
1414;SDS011;702;49.466;11.086;2024-02-26T05:34:12;5.30;;;4.33;;
1414;SDS011;702;49.466;11.086;2024-02-26T05:36:40;9.13;;;4.33;;
1414;SDS011;702;49.466;11.086;2024-02-26T05:39:07;6.13;;;4.57;;
1414;SDS011;702;49.466;11.086;2024-02-26T05:41:36;6.33;;;4.80;;
1414;SDS011;702;49.466;11.086;2024-02-26T05:44:03;5.50;;;4.30;;
1414;SDS011;702;49.466;11.086;2024-02-26T05:46:31;4.63;;;4.07;;
1414;SDS011;702;49.466;11.086;2024-02-26T05:48:59;5.70;;;4.73;;
1414;SDS011;702;49.466;11.086;2024-02-26T05:51:26;5.60;;;4.07;;
1414;SDS011;702;49.466;11.086;2024-02-26T05:53:53;6.10;;;5.10;;
1414;SDS011;702;49.466;11.086;2024-02-26T05:56:21;6.10;;;4.07;;
1414;SDS011;702;49.466;11.086;2024-02-26T05:58:48;6.10;;;4.70;;
1414;SDS011;702;49.466;11.086;2024-02-26T06:01:16;7.23;;;5.17;;
1414;SDS011;702;49.466;11.086;2024-02-26T06:03:43;6.00;;;4.90;;
1414;SDS011;702;49.466;11.086;2024-02-26T06:06:12;8.83;;;4.77;;
1414;SDS011;702;49.466;11.086;2024-02-26T06:08:40;6.60;;;4.77;;
1414;SDS011;702;49.466;11.086;2024-02-26T06:11:07;5.40;;;4.90;;
1414;SDS011;702;49.466;11.086;2024-02-26T06:13:35;7.53;;;4.60;;
1414;SDS011;702;49.466;11.086;2024-02-26T06:16:03;7.60;;;5.47;;
1414;SDS011;702;49.466;11.086;2024-02-26T06:18:32;5.90;;;5.30;;
1414;SDS011;702;49.466;11.086;2024-02-26T06:21:02;5.63;;;5.07;;
1414;SDS011;702;49.466;11.086;2024-02-26T06:23:31;5.40;;;4.33;;
1414;SDS011;702;49.466;11.086;2024-02-26T06:25:58;6.47;;;4.40;;
1414;SDS011;702;49.466;11.086;2024-02-26T06:28:29;5.77;;;5.17;;
1414;SDS011;702;49.466;11.086;2024-02-26T06:30:58;7.20;;;5.30;;
1414;SDS011;702;49.466;11.086;2024-02-26T06:33:26;5.00;;;4.47;;
1414;SDS011;702;49.466;11.086;2024-02-26T06:35:54;7.30;;;4.60;;
1414;SDS011;702;49.466;11.086;2024-02-26T06:38:22;5.67;;;5.10;;
1414;SDS011;702;49.466;11.086;2024-02-26T06:40:52;5.40;;;4.50;;
1414;SDS011;702;49.466;11.086;2024-02-26T06:43:19;6.17;;;4.93;;
1414;SDS011;702;49.466;11.086;2024-02-26T06:45:47;7.10;;;5.00;;
1414;SDS011;702;49.466;11.086;2024-02-26T06:48:15;6.13;;;5.03;;
1414;SDS011;702;49.466;11.086;2024-02-26T06:50:42;7.43;;;5.50;;
1414;SDS011;702;49.466;11.086;2024-02-26T06:53:09;6.37;;;5.30;;
1414;SDS011;702;49.466;11.086;2024-02-26T06:55:37;6.50;;;5.03;;
1414;SDS011;702;49.466;11.086;2024-02-26T06:58:07;5.23;;;4.57;;
1414;SDS011;702;49.466;11.086;2024-02-26T07:00:34;7.27;;;4.97;;
1414;SDS011;702;49.466;11.086;2024-02-26T07:03:02;7.20;;;5.27;;
1414;SDS011;702;49.466;11.086;2024-02-26T07:05:30;8.57;;;5.40;;
1414;SDS011;702;49.466;11.086;2024-02-26T07:07:57;10.23;;;5.07;;
1414;SDS011;702;49.466;11.086;2024-02-26T07:10:24;8.23;;;5.10;;
1414;SDS011;702;49.466;11.086;2024-02-26T07:12:51;8.43;;;5.43;;
1414;SDS011;702;49.466;11.086;2024-02-26T07:15:20;6.10;;;5.00;;
1414;SDS011;702;49.466;11.086;2024-02-26T07:17:47;7.53;;;5.10;;
1414;SDS011;702;49.466;11.086;2024-02-26T07:20:15;6.93;;;5.10;;
1414;SDS011;702;49.466;11.086;2024-02-26T07:22:43;7.00;;;4.83;;
1414;SDS011;702;49.466;11.086;2024-02-26T07:25:10;7.03;;;5.37;;
1414;SDS011;702;49.466;11.086;2024-02-26T07:27:38;6.60;;;4.93;;
1414;SDS011;702;49.466;11.086;2024-02-26T07:30:10;7.53;;;5.07;;
1414;SDS011;702;49.466;11.086;2024-02-26T07:32:40;7.63;;;5.87;;
1414;SDS011;702;49.466;11.086;2024-02-26T07:35:07;8.40;;;5.50;;
1414;SDS011;702;49.466;11.086;2024-02-26T07:37:35;9.13;;;5.77;;
1414;SDS011;702;49.466;11.086;2024-02-26T07:40:03;8.23;;;6.53;;
1414;SDS011;702;49.466;11.086;2024-02-26T07:42:33;10.00;;;5.30;;
1414;SDS011;702;49.466;11.086;2024-02-26T07:45:02;6.67;;;5.37;;
1414;SDS011;702;49.466;11.086;2024-02-26T07:47:30;7.37;;;5.80;;
1414;SDS011;702;49.466;11.086;2024-02-26T07:50:01;7.87;;;4.87;;
1414;SDS011;702;49.466;11.086;2024-02-26T07:52:29;6.37;;;5.40;;
1414;SDS011;702;49.466;11.086;2024-02-26T07:54:59;7.13;;;5.23;;
1414;SDS011;702;49.466;11.086;2024-02-26T07:57:26;8.00;;;5.87;;
1414;SDS011;702;49.466;11.086;2024-02-26T07:59:52;5.20;;;4.70;;
1414;SDS011;702;49.466;11.086;2024-02-26T08:02:20;6.10;;;5.37;;
1414;SDS011;702;49.466;11.086;2024-02-26T08:04:48;9.20;;;5.83;;
1414;SDS011;702;49.466;11.086;2024-02-26T08:07:17;6.27;;;5.33;;
1414;SDS011;702;49.466;11.086;2024-02-26T08:09:45;6.60;;;5.67;;
1414;SDS011;702;49.466;11.086;2024-02-26T08:12:12;8.20;;;5.90;;
1414;SDS011;702;49.466;11.086;2024-02-26T08:14:39;5.00;;;4.50;;
1414;SDS011;702;49.466;11.086;2024-02-26T08:17:07;6.73;;;4.80;;
1414;SDS011;702;49.466;11.086;2024-02-26T08:19:35;7.13;;;4.90;;
1414;SDS011;702;49.466;11.086;2024-02-26T08:22:02;5.20;;;4.50;;
1414;SDS011;702;49.466;11.086;2024-02-26T08:24:31;6.63;;;5.00;;
1414;SDS011;702;49.466;11.086;2024-02-26T08:26:59;5.37;;;4.40;;
1414;SDS011;702;49.466;11.086;2024-02-26T08:29:26;6.87;;;5.53;;
1414;SDS011;702;49.466;11.086;2024-02-26T08:31:53;7.13;;;5.73;;
1414;SDS011;702;49.466;11.086;2024-02-26T08:34:20;6.60;;;5.40;;
1414;SDS011;702;49.466;11.086;2024-02-26T08:36:47;7.43;;;6.00;;
1414;SDS011;702;49.466;11.086;2024-02-26T08:39:16;6.10;;;5.37;;
1414;SDS011;702;49.466;11.086;2024-02-26T08:41:44;10.13;;;7.07;;
1414;SDS011;702;49.466;11.086;2024-02-26T08:44:12;7.97;;;6.20;;
1414;SDS011;702;49.466;11.086;2024-02-26T08:46:39;6.70;;;5.43;;
1414;SDS011;702;49.466;11.086;2024-02-26T08:49:07;9.10;;;5.87;;
1414;SDS011;702;49.466;11.086;2024-02-26T08:51:34;6.50;;;5.13;;
1414;SDS011;702;49.466;11.086;2024-02-26T08:54:01;6.10;;;5.40;;
1414;SDS011;702;49.466;11.086;2024-02-26T08:56:28;8.70;;;6.03;;
1414;SDS011;702;49.466;11.086;2024-02-26T08:58:57;6.83;;;4.97;;
1414;SDS011;702;49.466;11.086;2024-02-26T09:01:28;7.43;;;5.60;;
1414;SDS011;702;49.466;11.086;2024-02-26T09:03:55;8.67;;;6.20;;
1414;SDS011;702;49.466;11.086;2024-02-26T09:06:23;8.43;;;5.50;;
1414;SDS011;702;49.466;11.086;2024-02-26T09:08:50;6.73;;;5.20;;
1414;SDS011;702;49.466;11.086;2024-02-26T09:11:17;6.97;;;5.27;;
1414;SDS011;702;49.466;11.086;2024-02-26T09:13:44;7.30;;;5.30;;
1414;SDS011;702;49.466;11.086;2024-02-26T09:16:13;8.33;;;4.83;;
1414;SDS011;702;49.466;11.086;2024-02-26T09:18:40;4.97;;;4.50;;
1414;SDS011;702;49.466;11.086;2024-02-26T09:21:07;5.70;;;5.20;;
1414;SDS011;702;49.466;11.086;2024-02-26T09:23:34;6.17;;;4.80;;
1414;SDS011;702;49.466;11.086;2024-02-26T09:26:02;5.77;;;4.43;;
1414;SDS011;702;49.466;11.086;2024-02-26T09:28:31;5.40;;;4.13;;
1414;SDS011;702;49.466;11.086;2024-02-26T09:31:03;5.03;;;4.20;;
1414;SDS011;702;49.466;11.086;2024-02-26T09:33:33;6.20;;;4.73;;
1414;SDS011;702;49.466;11.086;2024-02-26T09:36:00;4.27;;;3.87;;
1414;SDS011;702;49.466;11.086;2024-02-26T09:38:28;4.30;;;3.90;;
1414;SDS011;702;49.466;11.086;2024-02-26T09:40:56;8.47;;;4.50;;
1414;SDS011;702;49.466;11.086;2024-02-26T09:43:24;5.40;;;3.97;;
1414;SDS011;702;49.466;11.086;2024-02-26T09:46:01;4.97;;;3.83;;
1414;SDS011;702;49.466;11.086;2024-02-26T09:48:29;5.40;;;3.67;;
1414;SDS011;702;49.466;11.086;2024-02-26T09:50:58;5.60;;;3.70;;
1414;SDS011;702;49.466;11.086;2024-02-26T09:53:25;4.30;;;3.90;;
1414;SDS011;702;49.466;11.086;2024-02-26T09:55:54;4.70;;;4.10;;
1414;SDS011;702;49.466;11.086;2024-02-26T09:58:21;7.43;;;4.43;;
1414;SDS011;702;49.466;11.086;2024-02-26T10:00:50;3.80;;;3.40;;
1414;SDS011;702;49.466;11.086;2024-02-26T10:05:54;4.20;;;3.40;;
1414;SDS011;702;49.466;11.086;2024-02-26T10:08:25;4.80;;;4.07;;
1414;SDS011;702;49.466;11.086;2024-02-26T10:10:53;4.30;;;3.80;;
1414;SDS011;702;49.466;11.086;2024-02-26T10:13:22;5.80;;;3.80;;
1414;SDS011;702;49.466;11.086;2024-02-26T10:15:49;6.73;;;4.17;;
1414;SDS011;702;49.466;11.086;2024-02-26T10:18:16;6.53;;;3.80;;
1414;SDS011;702;49.466;11.086;2024-02-26T10:20:54;4.30;;;3.90;;
1414;SDS011;702;49.466;11.086;2024-02-26T10:23:27;5.00;;;4.30;;
1414;SDS011;702;49.466;11.086;2024-02-26T10:25:55;4.43;;;3.63;;
1414;SDS011;702;49.466;11.086;2024-02-26T10:28:23;5.87;;;3.60;;
1414;SDS011;702;49.466;11.086;2024-02-26T10:30:50;5.00;;;4.50;;
1414;SDS011;702;49.466;11.086;2024-02-26T10:33:19;4.50;;;3.80;;
1414;SDS011;702;49.466;11.086;2024-02-26T10:35:46;4.77;;;3.67;;
1414;SDS011;702;49.466;11.086;2024-02-26T10:38:14;7.37;;;3.90;;
1414;SDS011;702;49.466;11.086;2024-02-26T10:40:47;5.00;;;3.40;;
1414;SDS011;702;49.466;11.086;2024-02-26T10:43:15;4.10;;;3.23;;
1414;SDS011;702;49.466;11.086;2024-02-26T10:45:43;5.50;;;3.17;;
1414;SDS011;702;49.466;11.086;2024-02-26T10:48:13;4.10;;;3.40;;
1414;SDS011;702;49.466;11.086;2024-02-26T10:50:42;4.10;;;3.67;;
1414;SDS011;702;49.466;11.086;2024-02-26T10:53:12;4.57;;;3.60;;
1414;SDS011;702;49.466;11.086;2024-02-26T10:55:47;5.13;;;4.17;;
1414;SDS011;702;49.466;11.086;2024-02-26T10:58:23;4.87;;;3.77;;
1414;SDS011;702;49.466;11.086;2024-02-26T11:00:51;6.90;;;3.53;;
1414;SDS011;702;49.466;11.086;2024-02-26T11:03:19;4.00;;;3.30;;
1414;SDS011;702;49.466;11.086;2024-02-26T11:05:48;4.20;;;3.33;;
1414;SDS011;702;49.466;11.086;2024-02-26T11:08:16;4.00;;;3.03;;
1414;SDS011;702;49.466;11.086;2024-02-26T11:10:47;4.27;;;3.70;;
1414;SDS011;702;49.466;11.086;2024-02-26T11:13:17;3.57;;;3.27;;
1414;SDS011;702;49.466;11.086;2024-02-26T11:15:46;3.50;;;3.13;;
1414;SDS011;702;49.466;11.086;2024-02-26T11:18:14;4.60;;;3.60;;
1414;SDS011;702;49.466;11.086;2024-02-26T11:20:43;4.60;;;4.13;;
1414;SDS011;702;49.466;11.086;2024-02-26T11:23:11;3.63;;;3.20;;
1414;SDS011;702;49.466;11.086;2024-02-26T11:25:38;4.63;;;3.73;;
1414;SDS011;702;49.466;11.086;2024-02-26T11:28:08;4.70;;;3.67;;
1414;SDS011;702;49.466;11.086;2024-02-26T11:30:41;4.20;;;3.80;;
1414;SDS011;702;49.466;11.086;2024-02-26T11:33:13;3.93;;;3.10;;
1414;SDS011;702;49.466;11.086;2024-02-26T11:35:41;3.88;;;3.10;;
1414;SDS011;702;49.466;11.086;2024-02-26T11:38:16;4.30;;;2.93;;
1414;SDS011;702;49.466;11.086;2024-02-26T11:40:47;3.37;;;2.97;;
1414;SDS011;702;49.466;11.086;2024-02-26T11:43:18;5.70;;;3.80;;
1414;SDS011;702;49.466;11.086;2024-02-26T11:45:50;3.97;;;3.10;;
1414;SDS011;702;49.466;11.086;2024-02-26T11:48:22;3.43;;;3.13;;
1414;SDS011;702;49.466;11.086;2024-02-26T11:50:51;3.83;;;3.07;;
1414;SDS011;702;49.466;11.086;2024-02-26T11:53:21;3.03;;;2.83;;
1414;SDS011;702;49.466;11.086;2024-02-26T11:58:50;4.27;;;3.40;;
1414;SDS011;702;49.466;11.086;2024-02-26T12:01:36;4.07;;;3.67;;
1414;SDS011;702;49.466;11.086;2024-02-26T12:04:17;3.67;;;2.93;;
1414;SDS011;702;49.466;11.086;2024-02-26T12:06:50;5.03;;;3.10;;
1414;SDS011;702;49.466;11.086;2024-02-26T12:09:32;3.70;;;3.40;;
1414;SDS011;702;49.466;11.086;2024-02-26T12:12:02;4.67;;;3.63;;
1414;SDS011;702;49.466;11.086;2024-02-26T12:14:34;3.53;;;3.23;;
1414;SDS011;702;49.466;11.086;2024-02-26T12:17:03;3.87;;;3.40;;
1414;SDS011;702;49.466;11.086;2024-02-26T12:19:33;3.63;;;3.10;;
1414;SDS011;702;49.466;11.086;2024-02-26T12:22:02;3.70;;;3.40;;
1414;SDS011;702;49.466;11.086;2024-02-26T12:24:30;3.73;;;3.30;;
1414;SDS011;702;49.466;11.086;2024-02-26T12:26:57;3.53;;;3.00;;
1414;SDS011;702;49.466;11.086;2024-02-26T12:29:24;5.33;;;3.27;;
1414;SDS011;702;49.466;11.086;2024-02-26T12:31:53;5.23;;;3.13;;
1414;SDS011;702;49.466;11.086;2024-02-26T12:34:21;3.33;;;3.03;;
1414;SDS011;702;49.466;11.086;2024-02-26T12:36:48;3.80;;;3.30;;
1414;SDS011;702;49.466;11.086;2024-02-26T12:39:16;6.67;;;3.30;;
1414;SDS011;702;49.466;11.086;2024-02-26T12:41:45;3.47;;;3.17;;
1414;SDS011;702;49.466;11.086;2024-02-26T12:44:15;3.93;;;2.87;;
1414;SDS011;702;49.466;11.086;2024-02-26T12:46:42;4.10;;;2.90;;
1414;SDS011;702;49.466;11.086;2024-02-26T12:49:14;3.57;;;3.27;;
1414;SDS011;702;49.466;11.086;2024-02-26T12:51:43;3.43;;;2.93;;
1414;SDS011;702;49.466;11.086;2024-02-26T12:54:11;4.03;;;2.40;;
1414;SDS011;702;49.466;11.086;2024-02-26T12:56:39;2.57;;;2.30;;
1414;SDS011;702;49.466;11.086;2024-02-26T12:59:07;3.60;;;3.20;;
1414;SDS011;702;49.466;11.086;2024-02-26T13:01:35;2.70;;;2.47;;
1414;SDS011;702;49.466;11.086;2024-02-26T13:04:03;2.77;;;2.13;;
1414;SDS011;702;49.466;11.086;2024-02-26T13:06:33;3.93;;;2.53;;
1414;SDS011;702;49.466;11.086;2024-02-26T13:09:00;2.90;;;2.17;;
1414;SDS011;702;49.466;11.086;2024-02-26T13:11:28;2.80;;;2.17;;
1414;SDS011;702;49.466;11.086;2024-02-26T13:13:56;2.40;;;2.10;;
1414;SDS011;702;49.466;11.086;2024-02-26T13:16:24;1.93;;;1.60;;
1414;SDS011;702;49.466;11.086;2024-02-26T13:18:52;2.17;;;1.97;;
1414;SDS011;702;49.466;11.086;2024-02-26T13:21:20;2.17;;;1.50;;
1414;SDS011;702;49.466;11.086;2024-02-26T13:23:52;4.00;;;1.80;;
1414;SDS011;702;49.466;11.086;2024-02-26T13:26:22;1.97;;;1.53;;
1414;SDS011;702;49.466;11.086;2024-02-26T13:28:58;3.80;;;2.10;;
1414;SDS011;702;49.466;11.086;2024-02-26T13:31:27;4.23;;;1.90;;
1414;SDS011;702;49.466;11.086;2024-02-26T13:33:55;2.20;;;1.83;;
1414;SDS011;702;49.466;11.086;2024-02-26T13:36:22;1.53;;;1.20;;
1414;SDS011;702;49.466;11.086;2024-02-26T13:38:55;4.60;;;1.87;;
1414;SDS011;702;49.466;11.086;2024-02-26T13:41:22;3.07;;;1.63;;
1414;SDS011;702;49.466;11.086;2024-02-26T13:43:49;1.37;;;1.27;;
1414;SDS011;702;49.466;11.086;2024-02-26T13:46:17;2.73;;;1.53;;
1414;SDS011;702;49.466;11.086;2024-02-26T13:48:44;2.07;;;1.87;;
1414;SDS011;702;49.466;11.086;2024-02-26T13:51:12;2.00;;;1.13;;
1414;SDS011;702;49.466;11.086;2024-02-26T13:53:40;1.13;;;1.03;;
1414;SDS011;702;49.466;11.086;2024-02-26T13:56:08;1.50;;;1.40;;
1414;SDS011;702;49.466;11.086;2024-02-26T13:58:37;1.67;;;1.50;;
1414;SDS011;702;49.466;11.086;2024-02-26T14:01:04;1.57;;;1.47;;
1414;SDS011;702;49.466;11.086;2024-02-26T14:03:32;1.73;;;1.43;;
1414;SDS011;702;49.466;11.086;2024-02-26T14:05:59;1.43;;;1.33;;
1414;SDS011;702;49.466;11.086;2024-02-26T14:08:26;1.43;;;1.33;;
1414;SDS011;702;49.466;11.086;2024-02-26T14:10:54;2.30;;;1.40;;
1414;SDS011;702;49.466;11.086;2024-02-26T14:13:23;2.10;;;1.60;;
1414;SDS011;702;49.466;11.086;2024-02-26T14:15:50;2.63;;;1.40;;
1414;SDS011;702;49.466;11.086;2024-02-26T14:18:17;1.83;;;1.50;;
1414;SDS011;702;49.466;11.086;2024-02-26T14:20:45;2.37;;;1.37;;
1414;SDS011;702;49.466;11.086;2024-02-26T14:23:12;2.03;;;1.20;;
1414;SDS011;702;49.466;11.086;2024-02-26T14:25:40;2.70;;;1.47;;
1414;SDS011;702;49.466;11.086;2024-02-26T14:28:07;1.80;;;1.40;;
1414;SDS011;702;49.466;11.086;2024-02-26T14:30:36;2.37;;;2.07;;
1414;SDS011;702;49.466;11.086;2024-02-26T14:33:03;2.10;;;1.80;;
1414;SDS011;702;49.466;11.086;2024-02-26T14:35:31;3.60;;;1.87;;
1414;SDS011;702;49.466;11.086;2024-02-26T14:37:58;3.37;;;1.90;;
1414;SDS011;702;49.466;11.086;2024-02-26T14:40:27;2.80;;;2.27;;
1414;SDS011;702;49.466;11.086;2024-02-26T14:42:55;2.43;;;2.23;;
1414;SDS011;702;49.466;11.086;2024-02-26T14:45:23;2.73;;;2.27;;
1414;SDS011;702;49.466;11.086;2024-02-26T14:47:51;4.17;;;2.10;;
1414;SDS011;702;49.466;11.086;2024-02-26T14:50:19;2.30;;;2.10;;
1414;SDS011;702;49.466;11.086;2024-02-26T14:52:46;2.87;;;2.47;;
1414;SDS011;702;49.466;11.086;2024-02-26T14:55:13;2.83;;;2.40;;
1414;SDS011;702;49.466;11.086;2024-02-26T14:57:41;3.27;;;2.40;;
1414;SDS011;702;49.466;11.086;2024-02-26T15:00:09;6.80;;;2.50;;
1414;SDS011;702;49.466;11.086;2024-02-26T15:02:37;4.10;;;2.27;;
1414;SDS011;702;49.466;11.086;2024-02-26T15:05:06;3.20;;;2.67;;
1414;SDS011;702;49.466;11.086;2024-02-26T15:07:36;4.07;;;2.97;;
1414;SDS011;702;49.466;11.086;2024-02-26T15:10:06;2.90;;;2.67;;
1414;SDS011;702;49.466;11.086;2024-02-26T15:12:34;2.73;;;2.43;;
1414;SDS011;702;49.466;11.086;2024-02-26T15:15:02;3.70;;;2.80;;
1414;SDS011;702;49.466;11.086;2024-02-26T15:17:31;4.40;;;3.00;;
1414;SDS011;702;49.466;11.086;2024-02-26T15:20:00;3.10;;;2.70;;
1414;SDS011;702;49.466;11.086;2024-02-26T15:22:28;3.60;;;3.10;;
1414;SDS011;702;49.466;11.086;2024-02-26T15:24:56;3.27;;;2.97;;